sensor_id;sensor_type;location;lat;lon;timestamp;P1;durP1;ratioP1;P2;durP2;ratioP2
21624;SDS011;10974;51.034;3.744;2023-09-07T03:38:35;5.07;;;3.63;;
21624;SDS011;10974;51.034;3.744;2023-09-07T03:41:01;5.03;;;4.00;;
21624;SDS011;10974;51.034;3.744;2023-09-07T03:43:27;7.70;;;3.67;;
21624;SDS011;10974;51.034;3.744;2023-09-07T03:45:53;4.40;;;3.57;;
21624;SDS011;10974;51.034;3.744;2023-09-07T03:48:19;4.00;;;3.60;;
21624;SDS011;10974;51.034;3.744;2023-09-07T03:50:45;5.33;;;3.80;;
21624;SDS011;10974;51.034;3.744;2023-09-07T03:53:12;5.23;;;3.73;;
21624;SDS011;10974;51.034;3.744;2023-09-07T03:55:41;5.97;;;4.33;;
21624;SDS011;10974;51.034;3.744;2023-09-07T03:58:08;4.90;;;3.60;;
21624;SDS011;10974;51.034;3.744;2023-09-07T04:00:38;4.27;;;3.50;;
21624;SDS011;10974;51.034;3.744;2023-09-07T04:03:04;3.80;;;3.30;;
21624;SDS011;10974;51.034;3.744;2023-09-07T04:05:30;5.17;;;4.00;;
21624;SDS011;10974;51.034;3.744;2023-09-07T04:07:56;5.10;;;3.97;;
21624;SDS011;10974;51.034;3.744;2023-09-07T04:10:23;6.97;;;3.83;;
21624;SDS011;10974;51.034;3.744;2023-09-07T04:12:49;4.40;;;3.87;;
21624;SDS011;10974;51.034;3.744;2023-09-07T04:15:15;6.50;;;4.30;;
21624;SDS011;10974;51.034;3.744;2023-09-07T04:17:41;4.30;;;3.90;;
21624;SDS011;10974;51.034;3.744;2023-09-07T04:20:07;3.97;;;3.57;;
21624;SDS011;10974;51.034;3.744;2023-09-07T04:22:34;5.93;;;4.33;;
21624;SDS011;10974;51.034;3.744;2023-09-07T04:25:00;6.70;;;4.10;;
21624;SDS011;10974;51.034;3.744;2023-09-07T04:27:27;6.27;;;4.03;;
21624;SDS011;10974;51.034;3.744;2023-09-07T04:29:53;6.83;;;4.47;;
21624;SDS011;10974;51.034;3.744;2023-09-07T04:32:19;4.43;;;3.70;;
21624;SDS011;10974;51.034;3.744;2023-09-07T04:34:45;6.07;;;4.20;;
21624;SDS011;10974;51.034;3.744;2023-09-07T04:37:11;4.07;;;3.60;;
21624;SDS011;10974;51.034;3.744;2023-09-07T04:39:37;7.03;;;4.30;;
21624;SDS011;10974;51.034;3.744;2023-09-07T04:42:05;5.63;;;4.00;;
21624;SDS011;10974;51.034;3.744;2023-09-07T04:44:31;4.30;;;3.80;;
21624;SDS011;10974;51.034;3.744;2023-09-07T04:46:57;5.47;;;3.80;;
21624;SDS011;10974;51.034;3.744;2023-09-07T04:49:23;4.80;;;4.20;;
21624;SDS011;10974;51.034;3.744;2023-09-07T04:51:52;5.43;;;4.90;;
21624;SDS011;10974;51.034;3.744;2023-09-07T04:54:19;7.67;;;4.17;;
21624;SDS011;10974;51.034;3.744;2023-09-07T04:56:45;4.23;;;3.80;;
21624;SDS011;10974;51.034;3.744;2023-09-07T04:59:11;13.03;;;4.27;;
21624;SDS011;10974;51.034;3.744;2023-09-07T05:01:37;5.77;;;4.00;;
21624;SDS011;10974;51.034;3.744;2023-09-07T05:04:03;5.40;;;4.00;;
21624;SDS011;10974;51.034;3.744;2023-09-07T05:06:29;8.83;;;4.33;;
21624;SDS011;10974;51.034;3.744;2023-09-07T05:08:55;8.67;;;4.53;;
21624;SDS011;10974;51.034;3.744;2023-09-07T05:11:21;4.93;;;4.43;;
21624;SDS011;10974;51.034;3.744;2023-09-07T05:13:47;6.03;;;4.00;;
21624;SDS011;10974;51.034;3.744;2023-09-07T05:16:13;5.97;;;4.10;;
21624;SDS011;10974;51.034;3.744;2023-09-07T05:18:40;5.50;;;3.93;;
21624;SDS011;10974;51.034;3.744;2023-09-07T05:21:11;7.73;;;4.17;;
21624;SDS011;10974;51.034;3.744;2023-09-07T05:23:37;5.80;;;4.37;;
21624;SDS011;10974;51.034;3.744;2023-09-07T05:26:03;15.90;;;7.80;;
21624;SDS011;10974;51.034;3.744;2023-09-07T05:28:29;8.30;;;6.93;;
21624;SDS011;10974;51.034;3.744;2023-09-07T05:30:55;10.13;;;5.70;;
21624;SDS011;10974;51.034;3.744;2023-09-07T05:33:21;6.13;;;5.40;;
21624;SDS011;10974;51.034;3.744;2023-09-07T05:35:48;6.70;;;5.13;;
21624;SDS011;10974;51.034;3.744;2023-09-07T05:38:14;8.80;;;5.40;;
21624;SDS011;10974;51.034;3.744;2023-09-07T05:40:40;8.87;;;7.37;;
21624;SDS011;10974;51.034;3.744;2023-09-07T05:43:07;11.63;;;8.37;;
21624;SDS011;10974;51.034;3.744;2023-09-07T05:45:34;9.80;;;8.47;;
21624;SDS011;10974;51.034;3.744;2023-09-07T05:48:04;10.60;;;8.00;;
21624;SDS011;10974;51.034;3.744;2023-09-07T05:50:31;10.47;;;8.60;;
21624;SDS011;10974;51.034;3.744;2023-09-07T05:52:57;17.10;;;8.67;;
21624;SDS011;10974;51.034;3.744;2023-09-07T05:55:23;14.03;;;9.30;;
21624;SDS011;10974;51.034;3.744;2023-09-07T05:57:49;13.20;;;9.10;;
21624;SDS011;10974;51.034;3.744;2023-09-07T06:00:15;10.40;;;7.83;;
21624;SDS011;10974;51.034;3.744;2023-09-07T06:02:42;13.13;;;6.73;;
21624;SDS011;10974;51.034;3.744;2023-09-07T06:05:08;11.57;;;6.47;;
21624;SDS011;10974;51.034;3.744;2023-09-07T06:07:35;11.47;;;6.10;;
21624;SDS011;10974;51.034;3.744;2023-09-07T06:10:01;16.17;;;6.40;;
21624;SDS011;10974;51.034;3.744;2023-09-07T06:12:27;8.63;;;5.50;;
21624;SDS011;10974;51.034;3.744;2023-09-07T06:14:53;9.70;;;5.40;;
21624;SDS011;10974;51.034;3.744;2023-09-07T06:17:19;8.27;;;5.50;;
21624;SDS011;10974;51.034;3.744;2023-09-07T06:19:45;8.60;;;5.40;;
21624;SDS011;10974;51.034;3.744;2023-09-07T06:22:11;8.60;;;5.10;;
21624;SDS011;10974;51.034;3.744;2023-09-07T06:24:37;8.33;;;5.20;;
21624;SDS011;10974;51.034;3.744;2023-09-07T06:27:04;7.90;;;4.67;;
21624;SDS011;10974;51.034;3.744;2023-09-07T06:29:30;6.43;;;4.30;;
21624;SDS011;10974;51.034;3.744;2023-09-07T06:31:56;6.17;;;5.17;;
21624;SDS011;10974;51.034;3.744;2023-09-07T06:34:23;6.17;;;4.60;;
21624;SDS011;10974;51.034;3.744;2023-09-07T06:36:49;8.03;;;5.00;;
21624;SDS011;10974;51.034;3.744;2023-09-07T06:39:15;5.13;;;4.33;;
21624;SDS011;10974;51.034;3.744;2023-09-07T06:41:43;5.23;;;3.90;;
21624;SDS011;10974;51.034;3.744;2023-09-07T06:44:09;6.43;;;4.67;;
21624;SDS011;10974;51.034;3.744;2023-09-07T06:46:35;6.03;;;4.80;;
21624;SDS011;10974;51.034;3.744;2023-09-07T06:49:01;7.63;;;4.70;;
21624;SDS011;10974;51.034;3.744;2023-09-07T06:51:28;5.60;;;4.37;;
21624;SDS011;10974;51.034;3.744;2023-09-07T06:53:54;7.10;;;4.47;;
21624;SDS011;10974;51.034;3.744;2023-09-07T06:56:20;4.40;;;4.00;;
21624;SDS011;10974;51.034;3.744;2023-09-07T06:58:46;5.30;;;4.60;;
21624;SDS011;10974;51.034;3.744;2023-09-07T07:01:12;11.47;;;4.23;;
21624;SDS011;10974;51.034;3.744;2023-09-07T07:03:38;5.47;;;4.27;;
21624;SDS011;10974;51.034;3.744;2023-09-07T07:06:04;5.50;;;4.43;;
21624;SDS011;10974;51.034;3.744;2023-09-07T07:08:30;5.87;;;4.10;;
21624;SDS011;10974;51.034;3.744;2023-09-07T07:10:56;5.30;;;4.00;;
21624;SDS011;10974;51.034;3.744;2023-09-07T07:13:22;4.87;;;4.27;;
21624;SDS011;10974;51.034;3.744;2023-09-07T07:15:48;4.53;;;3.60;;
21624;SDS011;10974;51.034;3.744;2023-09-07T07:18:14;6.00;;;4.27;;
21624;SDS011;10974;51.034;3.744;2023-09-07T07:20:41;7.10;;;4.50;;
21624;SDS011;10974;51.034;3.744;2023-09-07T07:23:09;5.20;;;3.80;;
21624;SDS011;10974;51.034;3.744;2023-09-07T07:25:35;5.60;;;4.10;;
21624;SDS011;10974;51.034;3.744;2023-09-07T07:28:05;5.23;;;3.90;;
21624;SDS011;10974;51.034;3.744;2023-09-07T07:30:34;4.63;;;4.00;;
21624;SDS011;10974;51.034;3.744;2023-09-07T07:33:07;3.80;;;3.40;;
21624;SDS011;10974;51.034;3.744;2023-09-07T07:35:34;4.77;;;4.20;;
21624;SDS011;10974;51.034;3.744;2023-09-07T07:38:00;5.40;;;4.13;;
21624;SDS011;10974;51.034;3.744;2023-09-07T07:40:26;4.80;;;4.17;;
21624;SDS011;10974;51.034;3.744;2023-09-07T07:42:52;4.73;;;4.00;;
21624;SDS011;10974;51.034;3.744;2023-09-07T07:45:19;4.87;;;4.10;;
21624;SDS011;10974;51.034;3.744;2023-09-07T07:47:48;4.47;;;4.07;;
21624;SDS011;10974;51.034;3.744;2023-09-07T07:50:15;4.63;;;4.13;;
21624;SDS011;10974;51.034;3.744;2023-09-07T07:52:41;5.40;;;3.60;;
21624;SDS011;10974;51.034;3.744;2023-09-07T07:55:07;6.30;;;4.23;;
21624;SDS011;10974;51.034;3.744;2023-09-07T07:57:34;4.83;;;3.47;;
21624;SDS011;10974;51.034;3.744;2023-09-07T08:00:00;6.13;;;4.10;;
21624;SDS011;10974;51.034;3.744;2023-09-07T08:02:26;4.80;;;4.40;;
21624;SDS011;10974;51.034;3.744;2023-09-07T08:04:53;4.87;;;4.47;;
21624;SDS011;10974;51.034;3.744;2023-09-07T08:07:19;5.13;;;4.63;;
21624;SDS011;10974;51.034;3.744;2023-09-07T08:09:45;5.10;;;4.50;;
21624;SDS011;10974;51.034;3.744;2023-09-07T08:12:12;5.10;;;4.60;;
21624;SDS011;10974;51.034;3.744;2023-09-07T08:14:38;5.53;;;4.93;;
21624;SDS011;10974;51.034;3.744;2023-09-07T08:17:04;5.00;;;4.60;;
21624;SDS011;10974;51.034;3.744;2023-09-07T08:19:30;5.23;;;4.80;;
21624;SDS011;10974;51.034;3.744;2023-09-07T08:21:57;5.37;;;4.73;;
21624;SDS011;10974;51.034;3.744;2023-09-07T08:24:23;5.37;;;4.83;;
21624;SDS011;10974;51.034;3.744;2023-09-07T08:26:49;6.17;;;5.00;;
21624;SDS011;10974;51.034;3.744;2023-09-07T08:29:16;5.50;;;4.63;;
21624;SDS011;10974;51.034;3.744;2023-09-07T08:31:42;5.10;;;4.27;;
21624;SDS011;10974;51.034;3.744;2023-09-07T08:34:10;5.63;;;5.03;;
21624;SDS011;10974;51.034;3.744;2023-09-07T08:36:36;5.37;;;4.87;;
21624;SDS011;10974;51.034;3.744;2023-09-07T08:39:06;5.13;;;4.63;;
21624;SDS011;10974;51.034;3.744;2023-09-07T08:41:38;4.83;;;4.43;;
21624;SDS011;10974;51.034;3.744;2023-09-07T08:44:07;5.43;;;4.47;;
21624;SDS011;10974;51.034;3.744;2023-09-07T08:46:33;5.00;;;4.60;;
21624;SDS011;10974;51.034;3.744;2023-09-07T08:49:00;4.73;;;4.33;;
21624;SDS011;10974;51.034;3.744;2023-09-07T08:51:28;5.00;;;4.60;;
21624;SDS011;10974;51.034;3.744;2023-09-07T08:53:54;4.83;;;4.33;;
21624;SDS011;10974;51.034;3.744;2023-09-07T08:56:21;4.70;;;4.30;;
21624;SDS011;10974;51.034;3.744;2023-09-07T08:58:48;4.63;;;4.23;;
21624;SDS011;10974;51.034;3.744;2023-09-07T09:01:17;5.00;;;4.50;;
21624;SDS011;10974;51.034;3.744;2023-09-07T09:03:43;7.20;;;4.93;;
21624;SDS011;10974;51.034;3.744;2023-09-07T09:06:11;4.50;;;3.83;;
21624;SDS011;10974;51.034;3.744;2023-09-07T09:08:41;4.57;;;4.17;;
21624;SDS011;10974;51.034;3.744;2023-09-07T09:11:07;4.40;;;4.10;;
21624;SDS011;10974;51.034;3.744;2023-09-07T09:13:34;4.23;;;3.83;;
21624;SDS011;10974;51.034;3.744;2023-09-07T09:16:00;4.33;;;3.67;;
21624;SDS011;10974;51.034;3.744;2023-09-07T09:18:26;4.40;;;4.00;;
21624;SDS011;10974;51.034;3.744;2023-09-07T09:20:53;4.57;;;4.10;;
21624;SDS011;10974;51.034;3.744;2023-09-07T09:23:20;4.73;;;4.33;;
21624;SDS011;10974;51.034;3.744;2023-09-07T09:25:49;4.70;;;4.30;;
21624;SDS011;10974;51.034;3.744;2023-09-07T09:28:15;4.07;;;3.73;;
21624;SDS011;10974;51.034;3.744;2023-09-07T09:30:41;4.20;;;3.90;;
21624;SDS011;10974;51.034;3.744;2023-09-07T09:33:10;4.87;;;4.37;;
21624;SDS011;10974;51.034;3.744;2023-09-07T09:35:37;4.33;;;4.03;;
21624;SDS011;10974;51.034;3.744;2023-09-07T09:38:06;4.27;;;3.87;;
21624;SDS011;10974;51.034;3.744;2023-09-07T09:40:32;4.50;;;4.10;;
21624;SDS011;10974;51.034;3.744;2023-09-07T09:43:02;4.37;;;3.97;;
21624;SDS011;10974;51.034;3.744;2023-09-07T09:45:29;4.50;;;3.87;;
21624;SDS011;10974;51.034;3.744;2023-09-07T09:47:55;4.17;;;3.77;;
21624;SDS011;10974;51.034;3.744;2023-09-07T09:50:22;4.80;;;4.33;;
21624;SDS011;10974;51.034;3.744;2023-09-07T09:52:48;4.47;;;4.07;;
21624;SDS011;10974;51.034;3.744;2023-09-07T09:55:14;4.43;;;4.03;;
21624;SDS011;10974;51.034;3.744;2023-09-07T09:57:41;4.97;;;4.47;;
21624;SDS011;10974;51.034;3.744;2023-09-07T10:00:07;3.97;;;3.67;;
21624;SDS011;10974;51.034;3.744;2023-09-07T10:05:56;4.63;;;4.13;;
21624;SDS011;10974;51.034;3.744;2023-09-07T10:08:22;4.47;;;3.97;;
21624;SDS011;10974;51.034;3.744;2023-09-07T10:10:49;4.80;;;4.33;;
21624;SDS011;10974;51.034;3.744;2023-09-07T10:13:16;4.70;;;4.03;;
21624;SDS011;10974;51.034;3.744;2023-09-07T10:15:42;4.83;;;4.07;;
21624;SDS011;10974;51.034;3.744;2023-09-07T10:18:09;4.57;;;4.17;;
21624;SDS011;10974;51.034;3.744;2023-09-07T10:23:21;3.90;;;3.60;;
21624;SDS011;10974;51.034;3.744;2023-09-07T10:25:49;4.40;;;4.00;;
21624;SDS011;10974;51.034;3.744;2023-09-07T10:28:33;4.77;;;4.37;;
21624;SDS011;10974;51.034;3.744;2023-09-07T10:31:03;4.07;;;3.77;;
21624;SDS011;10974;51.034;3.744;2023-09-07T10:33:30;4.93;;;4.10;;
21624;SDS011;10974;51.034;3.744;2023-09-07T10:35:56;4.07;;;3.77;;
21624;SDS011;10974;51.034;3.744;2023-09-07T10:38:23;5.27;;;3.57;;
21624;SDS011;10974;51.034;3.744;2023-09-07T10:40:54;4.47;;;3.70;;
21624;SDS011;10974;51.034;3.744;2023-09-07T10:43:23;5.67;;;3.83;;
21624;SDS011;10974;51.034;3.744;2023-09-07T10:45:49;6.00;;;4.10;;
21624;SDS011;10974;51.034;3.744;2023-09-07T10:48:15;4.00;;;3.60;;
21624;SDS011;10974;51.034;3.744;2023-09-07T10:50:45;4.23;;;3.83;;
21624;SDS011;10974;51.034;3.744;2023-09-07T10:53:12;4.33;;;3.77;;
21624;SDS011;10974;51.034;3.744;2023-09-07T10:55:39;4.13;;;3.77;;
21624;SDS011;10974;51.034;3.744;2023-09-07T10:58:05;4.93;;;3.80;;
21624;SDS011;10974;51.034;3.744;2023-09-07T11:00:32;5.40;;;3.77;;
21624;SDS011;10974;51.034;3.744;2023-09-07T11:02:58;3.77;;;3.47;;
21624;SDS011;10974;51.034;3.744;2023-09-07T11:05:24;5.00;;;3.80;;
21624;SDS011;10974;51.034;3.744;2023-09-07T11:07:51;3.70;;;3.40;;
21624;SDS011;10974;51.034;3.744;2023-09-07T11:10:17;7.00;;;3.27;;
21624;SDS011;10974;51.034;3.744;2023-09-07T11:12:45;4.10;;;3.70;;
21624;SDS011;10974;51.034;3.744;2023-09-07T11:15:12;3.53;;;3.23;;
21624;SDS011;10974;51.034;3.744;2023-09-07T11:17:38;3.90;;;3.60;;
21624;SDS011;10974;51.034;3.744;2023-09-07T11:20:05;3.80;;;3.50;;
21624;SDS011;10974;51.034;3.744;2023-09-07T11:22:32;3.43;;;3.23;;
21624;SDS011;10974;51.034;3.744;2023-09-07T11:25:01;3.70;;;3.40;;
21624;SDS011;10974;51.034;3.744;2023-09-07T11:27:31;3.93;;;3.63;;
21624;SDS011;10974;51.034;3.744;2023-09-07T11:29:57;3.80;;;3.50;;
21624;SDS011;10974;51.034;3.744;2023-09-07T11:32:32;3.77;;;3.40;;
21624;SDS011;10974;51.034;3.744;2023-09-07T11:34:58;3.77;;;3.40;;
21624;SDS011;10974;51.034;3.744;2023-09-07T11:37:24;4.30;;;3.93;;
21624;SDS011;10974;51.034;3.744;2023-09-07T11:39:51;4.10;;;3.80;;
21624;SDS011;10974;51.034;3.744;2023-09-07T11:42:17;4.27;;;3.87;;
21624;SDS011;10974;51.034;3.744;2023-09-07T11:44:43;3.90;;;3.60;;
21624;SDS011;10974;51.034;3.744;2023-09-07T11:47:09;3.90;;;3.53;;
21624;SDS011;10974;51.034;3.744;2023-09-07T11:49:35;4.03;;;3.73;;
21624;SDS011;10974;51.034;3.744;2023-09-07T11:52:01;5.83;;;3.60;;
21624;SDS011;10974;51.034;3.744;2023-09-07T11:54:27;4.47;;;3.60;;
21624;SDS011;10974;51.034;3.744;2023-09-07T11:56:53;3.83;;;3.53;;
21624;SDS011;10974;51.034;3.744;2023-09-07T11:59:19;4.00;;;3.70;;
21624;SDS011;10974;51.034;3.744;2023-09-07T12:01:45;3.87;;;3.57;;
21624;SDS011;10974;51.034;3.744;2023-09-07T12:04:11;4.17;;;3.80;;
21624;SDS011;10974;51.034;3.744;2023-09-07T12:06:37;3.50;;;3.20;;
21624;SDS011;10974;51.034;3.744;2023-09-07T12:09:05;3.70;;;3.40;;
21624;SDS011;10974;51.034;3.744;2023-09-07T12:11:42;4.10;;;3.80;;
21624;SDS011;10974;51.034;3.744;2023-09-07T12:14:08;4.53;;;3.57;;
21624;SDS011;10974;51.034;3.744;2023-09-07T12:16:34;3.73;;;3.43;;
21624;SDS011;10974;51.034;3.744;2023-09-07T12:19:00;5.13;;;3.60;;
21624;SDS011;10974;51.034;3.744;2023-09-07T12:21:27;3.80;;;3.50;;
21624;SDS011;10974;51.034;3.744;2023-09-07T12:23:53;3.87;;;3.57;;
21624;SDS011;10974;51.034;3.744;2023-09-07T12:26:19;3.57;;;3.27;;
21624;SDS011;10974;51.034;3.744;2023-09-07T12:28:46;3.83;;;3.53;;
21624;SDS011;10974;51.034;3.744;2023-09-07T12:31:13;3.67;;;3.37;;
21624;SDS011;10974;51.034;3.744;2023-09-07T12:33:40;3.33;;;3.13;;
21624;SDS011;10974;51.034;3.744;2023-09-07T12:36:06;4.13;;;3.73;;
21624;SDS011;10974;51.034;3.744;2023-09-07T12:38:35;4.37;;;3.97;;
21624;SDS011;10974;51.034;3.744;2023-09-07T12:41:01;3.60;;;3.30;;
21624;SDS011;10974;51.034;3.744;2023-09-07T12:43:27;4.03;;;3.73;;
21624;SDS011;10974;51.034;3.744;2023-09-07T12:45:54;4.17;;;3.87;;
21624;SDS011;10974;51.034;3.744;2023-09-07T12:48:20;3.70;;;3.40;;
21624;SDS011;10974;51.034;3.744;2023-09-07T12:50:46;3.67;;;3.37;;
21624;SDS011;10974;51.034;3.744;2023-09-07T12:53:12;3.50;;;3.20;;
21624;SDS011;10974;51.034;3.744;2023-09-07T12:55:38;3.60;;;3.30;;
21624;SDS011;10974;51.034;3.744;2023-09-07T12:58:04;3.63;;;3.33;;
21624;SDS011;10974;51.034;3.744;2023-09-07T13:00:30;3.50;;;3.30;;
21624;SDS011;10974;51.034;3.744;2023-09-07T13:02:56;4.77;;;3.50;;
21624;SDS011;10974;51.034;3.744;2023-09-07T13:05:24;3.40;;;3.10;;
21624;SDS011;10974;51.034;3.744;2023-09-07T13:07:50;3.43;;;3.13;;
21624;SDS011;10974;51.034;3.744;2023-09-07T13:10:17;3.60;;;3.30;;
21624;SDS011;10974;51.034;3.744;2023-09-07T13:12:43;3.67;;;3.37;;
21624;SDS011;10974;51.034;3.744;2023-09-07T13:15:09;3.23;;;2.87;;
21624;SDS011;10974;51.034;3.744;2023-09-07T13:17:35;3.37;;;3.07;;
21624;SDS011;10974;51.034;3.744;2023-09-07T13:20:05;3.50;;;3.20;;
21624;SDS011;10974;51.034;3.744;2023-09-07T13:22:32;3.20;;;3.00;;
21624;SDS011;10974;51.034;3.744;2023-09-07T13:24:58;3.63;;;3.33;;
21624;SDS011;10974;51.034;3.744;2023-09-07T13:27:24;3.43;;;3.17;;
21624;SDS011;10974;51.034;3.744;2023-09-07T13:29:51;3.30;;;3.00;;
21624;SDS011;10974;51.034;3.744;2023-09-07T13:32:17;3.00;;;2.80;;
21624;SDS011;10974;51.034;3.744;2023-09-07T13:34:43;3.63;;;3.33;;
21624;SDS011;10974;51.034;3.744;2023-09-07T13:37:09;3.20;;;3.00;;
21624;SDS011;10974;51.034;3.744;2023-09-07T13:39:35;5.30;;;3.27;;
21624;SDS011;10974;51.034;3.744;2023-09-07T13:42:01;3.60;;;3.30;;
21624;SDS011;10974;51.034;3.744;2023-09-07T13:44:27;3.80;;;3.50;;
21624;SDS011;10974;51.034;3.744;2023-09-07T13:46:53;3.50;;;3.20;;
21624;SDS011;10974;51.034;3.744;2023-09-07T13:49:20;3.83;;;3.50;;
21624;SDS011;10974;51.034;3.744;2023-09-07T13:51:46;3.80;;;3.50;;
21624;SDS011;10974;51.034;3.744;2023-09-07T13:54:12;3.43;;;3.17;;
21624;SDS011;10974;51.034;3.744;2023-09-07T13:56:38;3.57;;;3.27;;
21624;SDS011;10974;51.034;3.744;2023-09-07T13:59:06;3.00;;;2.80;;
21624;SDS011;10974;51.034;3.744;2023-09-07T14:01:32;3.20;;;2.90;;
21624;SDS011;10974;51.034;3.744;2023-09-07T14:03:58;3.20;;;2.90;;
21624;SDS011;10974;51.034;3.744;2023-09-07T14:06:24;3.00;;;2.80;;
21624;SDS011;10974;51.034;3.744;2023-09-07T14:08:50;3.30;;;3.10;;
21624;SDS011;10974;51.034;3.744;2023-09-07T14:11:17;3.83;;;3.53;;
21624;SDS011;10974;51.034;3.744;2023-09-07T14:13:43;3.60;;;3.30;;
21624;SDS011;10974;51.034;3.744;2023-09-07T14:16:09;3.80;;;3.40;;
21624;SDS011;10974;51.034;3.744;2023-09-07T14:18:36;3.87;;;3.57;;
21624;SDS011;10974;51.034;3.744;2023-09-07T14:21:02;3.60;;;3.30;;
21624;SDS011;10974;51.034;3.744;2023-09-07T14:23:28;3.77;;;3.47;;
21624;SDS011;10974;51.034;3.744;2023-09-07T14:25:55;3.37;;;3.10;;
21624;SDS011;10974;51.034;3.744;2023-09-07T14:28:21;4.33;;;3.93;;
21624;SDS011;10974;51.034;3.744;2023-09-07T14:30:47;6.73;;;3.90;;
21624;SDS011;10974;51.034;3.744;2023-09-07T14:33:13;5.10;;;3.30;;
21624;SDS011;10974;51.034;3.744;2023-09-07T14:35:39;2.97;;;2.77;;
21624;SDS011;10974;51.034;3.744;2023-09-07T14:38:06;2.73;;;2.53;;
21624;SDS011;10974;51.034;3.744;2023-09-07T14:40:32;2.80;;;2.57;;
21624;SDS011;10974;51.034;3.744;2023-09-07T14:42:58;2.60;;;2.30;;
21624;SDS011;10974;51.034;3.744;2023-09-07T14:45:24;2.60;;;2.40;;
21624;SDS011;10974;51.034;3.744;2023-09-07T14:47:50;2.53;;;2.30;;
21624;SDS011;10974;51.034;3.744;2023-09-07T14:50:17;2.60;;;2.40;;
21624;SDS011;10974;51.034;3.744;2023-09-07T14:52:44;2.60;;;2.40;;
21624;SDS011;10974;51.034;3.744;2023-09-07T14:55:12;2.43;;;2.30;;
21624;SDS011;10974;51.034;3.744;2023-09-07T14:57:40;2.80;;;2.60;;
21624;SDS011;10974;51.034;3.744;2023-09-07T15:00:06;2.57;;;2.37;;
21624;SDS011;10974;51.034;3.744;2023-09-07T15:02:33;2.93;;;2.40;;
21624;SDS011;10974;51.034;3.744;2023-09-07T15:04:59;2.93;;;2.63;;
21624;SDS011;10974;51.034;3.744;2023-09-07T15:07:25;2.87;;;2.57;;
21624;SDS011;10974;51.034;3.744;2023-09-07T15:09:51;2.70;;;2.50;;
21624;SDS011;10974;51.034;3.744;2023-09-07T15:12:17;2.50;;;2.30;;
21624;SDS011;10974;51.034;3.744;2023-09-07T15:14:43;2.60;;;2.37;;
21624;SDS011;10974;51.034;3.744;2023-09-07T15:17:10;2.63;;;2.43;;
21624;SDS011;10974;51.034;3.744;2023-09-07T15:19:37;2.60;;;2.40;;
21624;SDS011;10974;51.034;3.744;2023-09-07T15:22:03;2.83;;;2.27;;
21624;SDS011;10974;51.034;3.744;2023-09-07T15:24:29;2.30;;;2.10;;
21624;SDS011;10974;51.034;3.744;2023-09-07T15:26:55;2.43;;;2.27;;
21624;SDS011;10974;51.034;3.744;2023-09-07T15:29:21;2.40;;;2.20;;
21624;SDS011;10974;51.034;3.744;2023-09-07T15:31:47;2.53;;;2.00;;
21624;SDS011;10974;51.034;3.744;2023-09-07T15:34:15;2.87;;;2.23;;
21624;SDS011;10974;51.034;3.744;2023-09-07T15:36:41;2.73;;;2.33;;
21624;SDS011;10974;51.034;3.744;2023-09-07T15:39:07;2.30;;;2.10;;
21624;SDS011;10974;51.034;3.744;2023-09-07T15:41:34;2.33;;;2.13;;
21624;SDS011;10974;51.034;3.744;2023-09-07T15:44:01;2.20;;;2.10;;
21624;SDS011;10974;51.034;3.744;2023-09-07T15:46:27;2.60;;;2.40;;
21624;SDS011;10974;51.034;3.744;2023-09-07T15:48:53;4.07;;;2.00;;
21624;SDS011;10974;51.034;3.744;2023-09-07T15:51:19;2.40;;;2.20;;
21624;SDS011;10974;51.034;3.744;2023-09-07T15:53:45;2.80;;;2.50;;
21624;SDS011;10974;51.034;3.744;2023-09-07T15:56:11;2.57;;;2.30;;
21624;SDS011;10974;51.034;3.744;2023-09-07T15:58:37;2.50;;;2.30;;
21624;SDS011;10974;51.034;3.744;2023-09-07T16:01:03;2.47;;;2.27;;
21624;SDS011;10974;51.034;3.744;2023-09-07T16:03:29;2.07;;;1.97;;
21624;SDS011;10974;51.034;3.744;2023-09-07T16:05:55;2.37;;;2.17;;
21624;SDS011;10974;51.034;3.744;2023-09-07T16:08:22;2.60;;;2.27;;
21624;SDS011;10974;51.034;3.744;2023-09-07T16:10:53;1.90;;;1.80;;
21624;SDS011;10974;51.034;3.744;2023-09-07T16:13:19;1.87;;;1.77;;
21624;SDS011;10974;51.034;3.744;2023-09-07T16:15:45;1.57;;;1.47;;
21624;SDS011;10974;51.034;3.744;2023-09-07T16:18:11;1.67;;;1.50;;
21624;SDS011;10974;51.034;3.744;2023-09-07T16:20:40;1.70;;;1.60;;
21624;SDS011;10974;51.034;3.744;2023-09-07T16:23:06;1.60;;;1.50;;
21624;SDS011;10974;51.034;3.744;2023-09-07T16:25:35;1.57;;;1.47;;
21624;SDS011;10974;51.034;3.744;2023-09-07T16:28:01;2.00;;;1.83;;
21624;SDS011;10974;51.034;3.744;2023-09-07T16:30:27;1.60;;;1.50;;
21624;SDS011;10974;51.034;3.744;2023-09-07T16:32:53;1.77;;;1.67;;
21624;SDS011;10974;51.034;3.744;2023-09-07T16:35:20;1.83;;;1.60;;
21624;SDS011;10974;51.034;3.744;2023-09-07T16:37:46;1.90;;;1.80;;
21624;SDS011;10974;51.034;3.744;2023-09-07T16:40:12;1.90;;;1.80;;
21624;SDS011;10974;51.034;3.744;2023-09-07T16:42:41;1.90;;;1.80;;
21624;SDS011;10974;51.034;3.744;2023-09-07T16:45:07;4.37;;;3.07;;
21624;SDS011;10974;51.034;3.744;2023-09-07T16:47:33;2.90;;;2.10;;
21624;SDS011;10974;51.034;3.744;2023-09-07T16:50:00;4.10;;;2.20;;
21624;SDS011;10974;51.034;3.744;2023-09-07T16:52:26;2.60;;;2.03;;
21624;SDS011;10974;51.034;3.744;2023-09-07T16:54:56;7.00;;;1.80;;
21624;SDS011;10974;51.034;3.744;2023-09-07T16:57:22;1.80;;;1.70;;
21624;SDS011;10974;51.034;3.744;2023-09-07T16:59:51;1.50;;;1.40;;
21624;SDS011;10974;51.034;3.744;2023-09-07T17:02:17;1.60;;;1.50;;
21624;SDS011;10974;51.034;3.744;2023-09-07T17:04:43;1.30;;;1.20;;
21624;SDS011;10974;51.034;3.744;2023-09-07T17:07:09;1.53;;;1.43;;
21624;SDS011;10974;51.034;3.744;2023-09-07T17:09:36;1.50;;;1.40;;
21624;SDS011;10974;51.034;3.744;2023-09-07T17:12:02;2.23;;;1.80;;
21624;SDS011;10974;51.034;3.744;2023-09-07T17:14:29;1.60;;;1.50;;
21624;SDS011;10974;51.034;3.744;2023-09-07T17:16:55;1.73;;;1.63;;
21624;SDS011;10974;51.034;3.744;2023-09-07T17:19:22;1.40;;;1.30;;
21624;SDS011;10974;51.034;3.744;2023-09-07T17:21:49;1.70;;;1.60;;
21624;SDS011;10974;51.034;3.744;2023-09-07T17:24:17;2.63;;;1.80;;
21624;SDS011;10974;51.034;3.744;2023-09-07T17:26:43;1.60;;;1.50;;
21624;SDS011;10974;51.034;3.744;2023-09-07T17:29:09;1.60;;;1.50;;
21624;SDS011;10974;51.034;3.744;2023-09-07T17:31:35;1.57;;;1.47;;
21624;SDS011;10974;51.034;3.744;2023-09-07T17:34:01;1.40;;;1.30;;
21624;SDS011;10974;51.034;3.744;2023-09-07T17:36:27;1.60;;;1.50;;
21624;SDS011;10974;51.034;3.744;2023-09-07T17:38:54;1.50;;;1.40;;
21624;SDS011;10974;51.034;3.744;2023-09-07T17:41:30;1.47;;;1.37;;
21624;SDS011;10974;51.034;3.744;2023-09-07T17:43:57;1.30;;;1.20;;
21624;SDS011;10974;51.034;3.744;2023-09-07T17:46:24;1.77;;;1.20;;
21624;SDS011;10974;51.034;3.744;2023-09-07T17:48:50;1.73;;;1.63;;
21624;SDS011;10974;51.034;3.744;2023-09-07T17:51:16;1.77;;;1.67;;
21624;SDS011;10974;51.034;3.744;2023-09-07T17:53:43;1.67;;;1.57;;
21624;SDS011;10974;51.034;3.744;2023-09-07T17:56:09;1.70;;;1.60;;
21624;SDS011;10974;51.034;3.744;2023-09-07T17:58:36;2.23;;;1.80;;
21624;SDS011;10974;51.034;3.744;2023-09-07T18:01:03;1.80;;;1.70;;
21624;SDS011;10974;51.034;3.744;2023-09-07T18:03:29;1.93;;;1.83;;
21624;SDS011;10974;51.034;3.744;2023-09-07T18:05:56;3.00;;;1.70;;
21624;SDS011;10974;51.034;3.744;2023-09-07T18:08:22;1.90;;;1.80;;
21624;SDS011;10974;51.034;3.744;2023-09-07T18:10:48;1.97;;;1.77;;
21624;SDS011;10974;51.034;3.744;2023-09-07T18:13:14;1.90;;;1.80;;
21624;SDS011;10974;51.034;3.744;2023-09-07T18:15:41;2.40;;;2.20;;
21624;SDS011;10974;51.034;3.744;2023-09-07T18:18:07;2.30;;;2.10;;
21624;SDS011;10974;51.034;3.744;2023-09-07T18:20:34;2.10;;;2.00;;
21624;SDS011;10974;51.034;3.744;2023-09-07T18:23:00;2.17;;;2.00;;
21624;SDS011;10974;51.034;3.744;2023-09-07T18:25:26;2.50;;;2.30;;
21624;SDS011;10974;51.034;3.744;2023-09-07T18:27:52;2.33;;;2.13;;